Aviation Digital Data Service (ADDS)

Output produced by METARs form (1935 UTC 25 March 2017)
found at http://www.aviationweather.gov/adds/metars/
 
EVLA 251920Z AUTO 35004KT 320V020 9999 NCD 03/01 Q1020
EVRA 251920Z 35003KT 9999 FEW004 OVC011 01/01 Q1018 R36/290195 NOSIG
TAF EVRA 251702Z 2518/2618 33005KT 9999 BKN020 
     TEMPO 2518/2520 2000 BR BKN005 
     TEMPO 2520/2606 0700 FZFG BKN002 
     BECMG 2606/2608 27010KT 
     TEMPO 2612/2618 25015G28KT
       
EVVA 251920Z AUTO 34007KT CAVOK 03/01 Q1020